createdAt,value
2022-12-11T01:21:25.200Z,0.00
2022-12-11T01:22:25.431Z,0.00
2022-12-11T01:23:27.603Z,0.00
2022-12-11T01:24:27.770Z,0.00
2022-12-11T01:25:26.817Z,0.00
2022-12-11T01:26:26.967Z,0.00
2022-12-11T01:27:26.212Z,0.00
2022-12-11T01:28:26.422Z,0.00
2022-12-11T01:29:26.624Z,0.00
2022-12-11T01:30:26.906Z,0.00
2022-12-11T01:31:27.224Z,0.00
2022-12-11T01:32:28.300Z,0.00
2022-12-11T01:33:29.461Z,0.00
2022-12-11T01:34:27.650Z,0.00
2022-12-11T01:35:27.872Z,0.00
2022-12-11T01:36:28.060Z,0.00
2022-12-11T01:37:30.320Z,0.00
2022-12-11T01:38:30.536Z,0.00
2022-12-11T01:39:28.761Z,0.00
2022-12-11T01:40:28.978Z,0.00
2022-12-11T01:41:31.141Z,0.00
2022-12-11T01:42:30.830Z,0.00
2022-12-11T01:43:29.539Z,0.00
2022-12-11T01:44:29.730Z,0.00
2022-12-11T01:45:29.941Z,0.00
2022-12-11T01:46:32.181Z,0.00
2022-12-11T01:47:32.450Z,0.00
2022-12-11T01:48:30.652Z,0.00
2022-12-11T01:49:30.861Z,0.00
2022-12-11T01:50:31.060Z,0.00
2022-12-11T01:51:31.287Z,0.00
2022-12-11T01:52:33.500Z,0.00
2022-12-11T01:53:31.701Z,0.00
2022-12-11T01:54:31.927Z,0.00
2022-12-11T01:55:32.134Z,0.00
2022-12-11T01:56:32.373Z,0.00
2022-12-11T01:57:32.570Z,0.00
2022-12-11T01:58:32.762Z,0.00
2022-12-11T01:59:33.020Z,0.00
2022-12-11T02:00:34.732Z,0.00
2022-12-11T02:01:33.515Z,0.00
2022-12-11T02:02:35.736Z,0.00
2022-12-11T02:03:33.951Z,0.00
2022-12-11T02:04:36.109Z,0.00
2022-12-11T02:05:35.259Z,0.00
2022-12-11T02:06:34.462Z,0.00
2022-12-11T02:07:36.643Z,0.00
2022-12-11T02:08:36.852Z,0.00
2022-12-11T02:09:35.991Z,0.00
2022-12-11T02:10:36.640Z,0.00
2022-12-11T02:11:35.360Z,0.00
2022-12-11T02:12:35.552Z,0.00
2022-12-11T02:13:36.710Z,0.00
2022-12-11T02:14:35.911Z,0.00
2022-12-11T02:15:38.087Z,0.00
2022-12-11T02:16:36.341Z,0.00
2022-12-11T02:17:38.533Z,0.00
2022-12-11T02:18:36.752Z,0.00
2022-12-11T02:19:37.912Z,0.00
2022-12-11T02:20:37.101Z,0.00
2022-12-11T02:21:37.330Z,0.00
2022-12-11T02:22:39.541Z,0.00
2022-12-11T02:23:37.783Z,0.00
2022-12-11T02:24:37.992Z,0.00
2022-12-11T02:25:38.202Z,0.00
2022-12-11T02:26:40.350Z,0.00
2022-12-11T02:27:38.581Z,0.00
2022-12-11T02:28:39.801Z,0.00
2022-12-11T02:29:39.010Z,0.00
2022-12-11T02:30:39.204Z,0.00
2022-12-11T02:31:39.453Z,0.00
2022-12-11T02:32:39.705Z,0.00
2022-12-11T02:33:40.881Z,0.00
2022-12-11T02:34:41.041Z,0.00
2022-12-11T02:35:41.212Z,0.00
2022-12-11T02:36:42.361Z,0.00
2022-12-11T02:37:41.583Z,0.00
2022-12-11T02:38:40.821Z,0.00
2022-12-11T02:39:41.021Z,0.00
2022-12-11T02:40:43.215Z,0.00
2022-12-11T02:41:42.363Z,0.00
2022-12-11T02:42:42.564Z,0.00
2022-12-11T02:43:41.769Z,0.00
2022-12-11T02:44:42.911Z,0.00
2022-12-11T02:45:43.087Z,0.00
2022-12-11T02:46:43.793Z,0.00
2022-12-11T02:47:42.520Z,0.00
2022-12-11T02:48:43.721Z,0.00
2022-12-11T02:49:42.912Z,0.00
2022-12-11T02:50:43.122Z,0.00
2022-12-11T02:51:43.316Z,0.00
2022-12-11T02:52:44.492Z,0.00
2022-12-11T02:53:43.672Z,0.00
2022-12-11T02:54:46.393Z,0.00
2022-12-11T02:55:46.053Z,0.00
2022-12-11T02:56:45.222Z,0.00
2022-12-11T02:57:44.451Z,0.00
2022-12-11T02:58:46.613Z,0.00
2022-12-11T02:59:46.155Z,0.00
2022-12-11T03:00:44.861Z,0.00
2022-12-11T03:01:47.090Z,0.00
2022-12-11T03:02:45.367Z,0.00
2022-12-11T03:03:47.571Z,0.00
2022-12-11T03:04:48.697Z,0.00
2022-12-11T03:05:47.871Z,0.00
2022-12-11T03:06:47.033Z,0.00
2022-12-11T03:07:48.248Z,0.00
2022-12-11T03:08:47.442Z,0.00
2022-12-11T03:09:46.723Z,0.00
2022-12-11T03:10:46.931Z,0.00
2022-12-11T03:11:49.114Z,0.00
2022-12-11T03:12:53.045Z,0.00
2022-12-11T03:13:48.671Z,0.00
2022-12-11T03:14:51.297Z,0.00
2022-12-11T03:15:48.003Z,0.00
2022-12-11T03:16:49.151Z,0.00
2022-12-11T03:17:48.362Z,0.00
2022-12-11T03:18:48.571Z,0.00
2022-12-11T03:19:48.781Z,0.00
2022-12-11T03:20:49.030Z,0.00
2022-12-11T03:21:49.232Z,0.00
2022-12-11T03:22:50.432Z,0.00
2022-12-11T03:23:50.592Z,0.00
2022-12-11T03:24:49.812Z,0.00
2022-12-11T03:25:50.046Z,0.00
2022-12-11T03:26:55.973Z,0.00
2022-12-11T03:27:50.625Z,0.00
2022-12-11T03:28:52.801Z,0.00
2022-12-11T03:29:50.991Z,0.00
2022-12-11T03:30:51.232Z,0.00
2022-12-11T03:31:51.472Z,0.00
2022-12-11T03:32:51.702Z,0.00
2022-12-11T03:33:52.851Z,0.00
2022-12-11T03:34:56.965Z,0.00
2022-12-11T03:35:52.455Z,0.00
2022-12-11T03:36:52.672Z,0.00
2022-12-11T03:37:53.889Z,0.00
2022-12-11T03:38:53.091Z,0.00
2022-12-11T03:39:53.279Z,0.00
2022-12-11T03:40:53.471Z,0.00
2022-12-11T03:41:53.662Z,0.00
2022-12-11T03:42:53.881Z,0.00
2022-12-11T03:43:54.110Z,0.00
2022-12-11T03:44:54.316Z,0.00
2022-12-11T03:45:54.554Z,0.00
2022-12-11T03:46:54.794Z,0.00
2022-12-11T03:47:55.957Z,0.00
2022-12-11T03:48:55.195Z,0.00
2022-12-11T03:49:55.407Z,0.00
2022-12-11T03:50:56.564Z,0.00
2022-12-11T03:51:55.751Z,0.00
2022-12-11T03:52:55.952Z,0.00
2022-12-11T03:53:56.171Z,0.00
2022-12-11T03:54:56.376Z,0.00
2022-12-11T03:55:56.603Z,0.00
2022-12-11T03:56:56.813Z,0.00
2022-12-11T03:57:57.012Z,0.00
2022-12-11T03:58:57.221Z,0.00
2022-12-11T03:59:59.398Z,0.00
2022-12-11T04:00:59.572Z,0.00
2022-12-11T04:01:57.864Z,0.00
2022-12-11T04:03:00.076Z,0.00
2022-12-11T04:03:58.395Z,0.00
2022-12-11T04:05:00.632Z,0.00
2022-12-11T04:05:58.850Z,0.00
2022-12-11T04:07:00.532Z,0.00
2022-12-11T04:08:00.719Z,0.00
2022-12-11T04:08:59.452Z,0.00
2022-12-11T04:09:59.642Z,0.00
2022-12-11T04:11:00.792Z,0.00
2022-12-11T04:12:00.013Z,0.00
2022-12-11T04:13:00.213Z,0.00
2022-12-11T04:14:00.431Z,0.00
2022-12-11T04:15:00.636Z,0.00
2022-12-11T04:16:00.874Z,0.00
2022-12-11T04:17:01.119Z,0.00
2022-12-11T04:18:03.272Z,0.00
2022-12-11T04:19:01.543Z,0.00
2022-12-11T04:20:02.565Z,0.00
2022-12-11T04:21:01.816Z,0.00
2022-12-11T04:22:03.021Z,0.00
2022-12-11T04:23:03.162Z,0.00
2022-12-11T04:24:03.302Z,0.00
2022-12-11T04:25:03.469Z,0.00
2022-12-11T04:26:04.654Z,0.00
2022-12-11T04:27:03.782Z,0.00
2022-12-11T04:28:03.965Z,0.00
2022-12-11T04:29:04.114Z,0.00
2022-12-11T04:30:04.272Z,0.00
2022-12-11T04:31:04.461Z,0.00
2022-12-11T04:32:05.169Z,0.00
2022-12-11T04:33:04.773Z,0.00
2022-12-11T04:34:04.965Z,0.00
2022-12-11T04:35:05.096Z,0.00
2022-12-11T04:36:05.283Z,0.00
2022-12-11T04:37:05.483Z,0.00
2022-12-11T04:38:06.745Z,0.00
2022-12-11T04:39:05.905Z,0.00
2022-12-11T04:40:06.104Z,0.00
2022-12-11T04:41:06.283Z,0.00
2022-12-11T04:42:06.463Z,0.00
2022-12-11T04:43:06.674Z,0.00
2022-12-11T04:44:06.848Z,0.00
2022-12-11T04:45:08.175Z,0.00
2022-12-11T04:46:07.083Z,0.00
2022-12-11T04:47:07.363Z,0.00
2022-12-11T04:48:08.104Z,0.00
2022-12-11T04:49:07.792Z,0.00
2022-12-11T04:50:07.983Z,0.00
2022-12-11T04:51:08.174Z,0.00
2022-12-11T04:52:08.377Z,0.00
2022-12-11T04:53:08.600Z,0.00
2022-12-11T04:54:08.773Z,0.00
2022-12-11T04:55:09.783Z,0.00
2022-12-11T04:56:09.583Z,0.00
2022-12-11T04:57:09.265Z,0.00
2022-12-11T04:58:09.976Z,0.00
2022-12-11T04:59:09.663Z,0.00
2022-12-11T05:00:09.864Z,0.00
2022-12-11T05:01:09.869Z,0.00
2022-12-11T05:02:09.093Z,0.00
2022-12-11T05:03:09.347Z,0.00
2022-12-11T05:04:11.552Z,0.00
2022-12-11T05:05:10.153Z,0.00
2022-12-11T05:06:12.587Z,0.00
2022-12-11T05:07:10.294Z,0.00
2022-12-11T05:08:11.685Z,0.00
2022-12-11T05:09:10.956Z,0.00
2022-12-11T05:10:12.102Z,0.00
2022-12-11T05:11:11.286Z,0.00
2022-12-11T05:12:11.503Z,0.00
2022-12-11T05:13:12.693Z,0.00
2022-12-11T05:14:11.937Z,0.00
2022-12-11T05:15:14.197Z,0.00
2022-12-11T05:16:12.445Z,0.00
2022-12-11T05:17:15.507Z,0.00
2022-12-11T05:18:12.744Z,0.00
2022-12-11T05:19:13.416Z,0.00
2022-12-11T05:20:15.073Z,0.00
2022-12-11T05:21:13.284Z,0.00
2022-12-11T05:22:13.485Z,0.00
2022-12-11T05:23:15.673Z,0.00
2022-12-11T05:24:13.865Z,0.00
2022-12-11T05:25:14.238Z,0.00
2022-12-11T05:26:14.497Z,0.00
2022-12-11T05:27:15.665Z,0.00
2022-12-11T05:28:15.835Z,0.00
2022-12-11T05:29:15.040Z,0.00
2022-12-11T05:30:16.246Z,0.00
2022-12-11T05:31:16.993Z,0.00
2022-12-11T05:32:15.793Z,0.00
2022-12-11T05:33:16.952Z,0.00
2022-12-11T05:34:16.166Z,0.00
2022-12-11T05:35:18.324Z,0.00
2022-12-11T05:36:18.513Z,0.00
2022-12-11T05:37:16.743Z,0.00
2022-12-11T05:38:18.014Z,0.00
2022-12-11T05:39:18.165Z,0.00
2022-12-11T05:40:19.351Z,0.00
2022-12-11T05:41:17.563Z,0.00
2022-12-11T05:42:17.755Z,0.00
2022-12-11T05:43:19.914Z,0.00
2022-12-11T05:44:18.114Z,0.00
2022-12-11T05:45:18.355Z,0.00
2022-12-11T05:46:20.599Z,0.00
2022-12-11T05:47:18.884Z,0.00
2022-12-11T05:48:20.035Z,0.00
2022-12-11T05:49:20.160Z,0.00
2022-12-11T05:50:19.483Z,0.00
2022-12-11T05:51:19.692Z,0.00
2022-12-11T05:52:19.917Z,0.00
2022-12-11T05:53:21.084Z,0.00
2022-12-11T05:54:21.254Z,0.00
2022-12-11T05:55:20.503Z,0.00
2022-12-11T05:56:21.654Z,0.00
2022-12-11T05:57:22.833Z,0.00
2022-12-11T05:58:21.035Z,0.00
2022-12-11T05:59:22.200Z,0.00
2022-12-11T06:00:21.426Z,0.00
2022-12-11T06:01:24.523Z,0.00
2022-12-11T06:02:21.830Z,0.00
2022-12-11T06:03:22.184Z,0.00
2022-12-11T06:04:22.388Z,0.00
2022-12-11T06:05:22.636Z,0.00
2022-12-11T06:06:22.844Z,0.00
2022-12-11T06:07:25.044Z,0.00
2022-12-11T06:08:25.274Z,0.00
2022-12-11T06:09:23.504Z,0.00
2022-12-11T06:10:25.705Z,0.00
2022-12-11T06:11:24.894Z,0.00
2022-12-11T06:12:24.105Z,0.00
2022-12-11T06:13:26.263Z,0.00
2022-12-11T06:14:24.484Z,0.00
2022-12-11T06:15:26.684Z,0.00
2022-12-11T06:16:25.017Z,0.00
2022-12-11T06:17:25.245Z,0.00
2022-12-11T06:18:25.461Z,0.00
2022-12-11T06:19:25.674Z,0.00
2022-12-11T06:20:26.836Z,0.00
2022-12-11T06:21:27.037Z,0.00
2022-12-11T06:22:26.236Z,0.00
2022-12-11T06:23:26.456Z,0.00
2022-12-11T06:24:26.666Z,0.00
2022-12-11T06:25:27.833Z,0.00
2022-12-11T06:26:27.107Z,0.00
2022-12-11T06:27:28.265Z,0.00
2022-12-11T06:28:28.431Z,0.00
2022-12-11T06:29:29.595Z,0.00
2022-12-11T06:30:38.642Z,0.00
2022-12-11T06:31:29.297Z,0.00
2022-12-11T06:32:29.974Z,0.00
2022-12-11T06:33:28.674Z,0.00
2022-12-11T06:34:29.893Z,0.00
2022-12-11T06:35:29.125Z,0.00
2022-12-11T06:36:30.311Z,0.00
2022-12-11T06:37:29.525Z,0.00
2022-12-11T06:38:31.214Z,0.00
2022-12-11T06:39:29.956Z,1.00
2022-12-11T06:40:31.114Z,1.00
2022-12-11T06:41:30.340Z,0.00
2022-12-11T06:42:31.338Z,1.00
2022-12-11T06:43:31.045Z,1.00
2022-12-11T06:44:32.244Z,1.00
2022-12-11T06:45:31.509Z,2.00
2022-12-11T06:46:31.727Z,1.00
2022-12-11T06:47:33.904Z,2.00
2022-12-11T06:48:33.105Z,3.00
2022-12-11T06:49:32.380Z,3.00
2022-12-11T06:50:33.526Z,4.00
2022-12-11T06:51:34.234Z,3.00
2022-12-11T06:52:32.966Z,4.00
2022-12-11T06:53:35.155Z,5.00
2022-12-11T06:54:33.430Z,6.00
2022-12-11T06:55:34.654Z,8.00
2022-12-11T06:56:33.866Z,8.00
2022-12-11T06:57:35.006Z,9.00
2022-12-11T06:58:35.155Z,10.00
2022-12-11T06:59:34.395Z,11.00
2022-12-11T07:00:34.628Z,13.00
2022-12-11T07:01:36.804Z,14.00
2022-12-11T07:02:35.077Z,16.00
2022-12-11T07:03:36.299Z,18.00
2022-12-11T07:04:35.537Z,22.00
2022-12-11T07:05:35.775Z,26.00
2022-12-11T07:06:36.946Z,30.00
2022-12-11T07:07:38.117Z,34.00
2022-12-11T07:08:37.827Z,38.00
2022-12-11T07:09:36.665Z,42.00
2022-12-11T07:10:36.953Z,47.00
2022-12-11T07:11:38.126Z,54.00
2022-12-11T07:12:37.343Z,61.00
2022-12-11T07:13:38.525Z,68.00
2022-12-11T07:14:37.739Z,75.00
2022-12-11T07:15:40.529Z,79.00
2022-12-11T07:16:40.372Z,84.00
2022-12-11T07:17:40.598Z,89.00
2022-12-11T07:18:38.816Z,96.00
2022-12-11T07:19:40.507Z,107.00
2022-12-11T07:20:40.195Z,118.00
2022-12-11T07:21:39.395Z,132.00
2022-12-11T07:22:46.093Z,147.00
2022-12-11T07:23:39.756Z,160.00
2022-12-11T07:24:39.975Z,167.00
2022-12-11T07:25:40.185Z,177.00
2022-12-11T07:26:40.407Z,191.00
2022-12-11T07:27:41.642Z,209.00
2022-12-11T07:28:42.694Z,232.00
2022-12-11T07:29:40.897Z,252.00
2022-12-11T07:30:41.131Z,269.00
2022-12-11T07:31:42.369Z,279.00
2022-12-11T07:32:43.160Z,287.00
2022-12-11T07:33:43.841Z,295.00
2022-12-11T07:34:46.071Z,308.00
2022-12-11T07:35:44.316Z,326.00
2022-12-11T07:36:42.539Z,346.00
2022-12-11T07:37:44.727Z,367.00
2022-12-11T07:38:44.955Z,385.00
2022-12-11T07:39:43.192Z,401.00
2022-12-11T07:40:45.356Z,407.00
2022-12-11T07:41:43.555Z,411.00
2022-12-11T07:42:46.341Z,416.00
2022-12-11T07:43:44.267Z,433.00
2022-12-11T07:44:44.505Z,464.00
2022-12-11T07:45:46.704Z,494.00
2022-12-11T07:46:46.917Z,518.00
2022-12-11T07:47:45.138Z,530.00
2022-12-11T07:48:47.355Z,543.00
2022-12-11T07:49:45.627Z,562.00
2022-12-11T07:50:47.796Z,592.00
2022-12-11T07:51:45.998Z,632.00
2022-12-11T07:52:47.681Z,668.00
2022-12-11T07:53:46.444Z,690.00
2022-12-11T07:54:48.625Z,705.00
2022-12-11T07:55:46.839Z,723.00
2022-12-11T07:56:52.820Z,736.00
2022-12-11T07:57:47.347Z,753.00
2022-12-11T07:58:49.556Z,790.00
2022-12-11T07:59:47.770Z,834.00
2022-12-11T08:00:49.956Z,859.00
2022-12-11T08:01:50.226Z,849.00
2022-12-11T08:02:49.468Z,821.00
2022-12-11T08:03:49.707Z,788.00
2022-12-11T08:04:48.915Z,770.00
2022-12-11T08:05:49.126Z,779.00
2022-12-11T08:06:51.306Z,817.00
2022-12-11T08:07:51.557Z,859.00
2022-12-11T08:08:49.832Z,878.00
2022-12-11T08:09:50.064Z,888.00
2022-12-11T08:10:51.729Z,907.00
2022-12-11T08:11:52.452Z,918.00
2022-12-11T08:12:51.664Z,912.00
2022-12-11T08:13:50.877Z,896.00
2022-12-11T08:14:52.056Z,903.00
2022-12-11T08:15:51.255Z,944.00
2022-12-11T08:16:52.997Z,1008.00
2022-12-11T08:17:52.710Z,1039.00
2022-12-11T08:18:51.937Z,1050.00
2022-12-11T08:19:52.146Z,1088.00
2022-12-11T08:20:52.359Z,1161.00
2022-12-11T08:21:52.563Z,1225.00
2022-12-11T08:22:59.029Z,1253.00
2022-12-11T08:23:53.051Z,1262.00
2022-12-11T08:24:53.265Z,1252.00
2022-12-11T08:25:53.463Z,1257.00
2022-12-11T08:26:53.666Z,1283.00
2022-12-11T08:27:53.896Z,1334.00
2022-12-11T08:28:54.116Z,1398.00
2022-12-11T08:29:56.278Z,1457.00
2022-12-11T08:30:56.497Z,1509.00
2022-12-11T08:31:55.675Z,1545.00
2022-12-11T08:32:55.856Z,1555.00
2022-12-11T08:33:55.068Z,1549.00
2022-12-11T08:34:56.159Z,1534.00
2022-12-11T08:35:56.313Z,1510.00
2022-12-11T08:36:56.997Z,1491.00
2022-12-11T08:37:59.569Z,1524.00
2022-12-11T08:38:55.831Z,1580.00
2022-12-11T08:39:56.027Z,1628.00
2022-12-11T08:40:56.268Z,1663.00
2022-12-11T08:41:56.457Z,1693.00
2022-12-11T08:42:56.688Z,1751.00
2022-12-11T08:43:56.896Z,1804.00
2022-12-11T08:44:57.106Z,1774.00
2022-12-11T08:45:59.314Z,1753.00
2022-12-11T08:46:57.538Z,1750.00
2022-12-11T08:47:57.736Z,1741.00
2022-12-11T08:48:57.968Z,1714.00
2022-12-11T08:49:58.200Z,1678.00
2022-12-11T08:50:58.438Z,1666.00
2022-12-11T08:51:59.620Z,1696.00
2022-12-11T08:53:00.805Z,1745.00
2022-12-11T08:53:59.052Z,1789.00
2022-12-11T08:55:01.199Z,1822.00
2022-12-11T08:55:59.449Z,1860.00
2022-12-11T08:57:01.647Z,1927.00
2022-12-11T08:58:01.326Z,2065.00
2022-12-11T08:59:02.001Z,2230.00
2022-12-11T09:00:01.188Z,2360.00
2022-12-11T09:01:00.508Z,2442.00
2022-12-11T09:02:00.779Z,2477.00
2022-12-11T09:03:01.025Z,2505.00
2022-12-11T09:04:01.258Z,2539.00
2022-12-11T09:05:02.927Z,2590.00
2022-12-11T09:06:01.738Z,2611.00
2022-12-11T09:07:03.037Z,2585.00
2022-12-11T09:08:03.895Z,2600.00
2022-12-11T09:09:02.660Z,2650.00
2022-12-11T09:10:04.833Z,2658.00
2022-12-11T09:11:03.072Z,2625.00
2022-12-11T09:12:03.307Z,2576.00
2022-12-11T09:13:03.527Z,2548.00
2022-12-11T09:14:07.669Z,2557.00
2022-12-11T09:15:03.772Z,2595.00
2022-12-11T09:16:04.033Z,2670.00
2022-12-11T09:17:04.320Z,2779.00
2022-12-11T09:18:04.539Z,2856.00
2022-12-11T09:19:04.771Z,2892.00
2022-12-11T09:20:05.907Z,2906.00
2022-12-11T09:21:06.598Z,2932.00
2022-12-11T09:22:05.311Z,2949.00
2022-12-11T09:23:07.477Z,2946.00
2022-12-11T09:24:05.667Z,2922.00
2022-12-11T09:25:05.883Z,2931.00
2022-12-11T09:26:08.078Z,2959.00
2022-12-11T09:27:08.359Z,2964.00
2022-12-11T09:28:06.558Z,2962.00
2022-12-11T09:29:06.795Z,2966.00
2022-12-11T09:30:06.992Z,2953.00
2022-12-11T09:31:07.240Z,2930.00
2022-12-11T09:32:11.426Z,2904.00
2022-12-11T09:33:08.587Z,2897.00
2022-12-11T09:34:09.736Z,2926.00
2022-12-11T09:35:08.102Z,2987.00
2022-12-11T09:36:09.448Z,3059.00
2022-12-11T09:37:09.121Z,3092.00
2022-12-11T09:38:10.798Z,3093.00
2022-12-11T09:39:08.519Z,3076.00
2022-12-11T09:40:08.707Z,3087.00
2022-12-11T09:41:08.910Z,3151.00
2022-12-11T09:42:09.129Z,3188.00
2022-12-11T09:43:09.331Z,3176.00
2022-12-11T09:44:09.539Z,3158.00
2022-12-11T09:45:10.834Z,3136.00
2022-12-11T09:46:11.238Z,3080.00
2022-12-11T09:47:11.549Z,3037.00
2022-12-11T09:48:12.718Z,3025.00
2022-12-11T09:49:10.927Z,3027.00
2022-12-11T09:50:11.118Z,3031.00
2022-12-11T09:51:12.316Z,3057.00
2022-12-11T09:52:13.039Z,3135.00
2022-12-11T09:53:14.227Z,3281.00
2022-12-11T09:54:11.928Z,3448.00
2022-12-11T09:55:12.337Z,3587.00
2022-12-11T09:56:14.659Z,3698.00
2022-12-11T09:57:12.420Z,3722.00
2022-12-11T09:58:14.572Z,3610.00
2022-12-11T09:59:12.781Z,3505.00
2022-12-11T10:00:12.988Z,3402.00
2022-12-11T10:01:14.193Z,3330.00
2022-12-11T10:02:13.513Z,3331.00
2022-12-11T10:03:13.751Z,3390.00
2022-12-11T10:04:13.953Z,3512.00
2022-12-11T10:05:14.283Z,3696.00
2022-12-11T10:06:14.560Z,3840.00
2022-12-11T10:07:14.800Z,3897.00
2022-12-11T10:08:16.034Z,3883.00
2022-12-11T10:09:15.268Z,3838.00
2022-12-11T10:10:16.938Z,3814.00
2022-12-11T10:11:15.640Z,3856.00
2022-12-11T10:12:15.889Z,3915.00
2022-12-11T10:13:17.108Z,3930.00
2022-12-11T10:14:16.310Z,3874.00
2022-12-11T10:15:17.512Z,3824.00
2022-12-11T10:16:20.181Z,3813.00
2022-12-11T10:17:16.941Z,3818.00
2022-12-11T10:18:18.139Z,3789.00
2022-12-11T10:19:17.341Z,3756.00
2022-12-11T10:20:17.601Z,3687.00
2022-12-11T10:21:19.869Z,3564.00
2022-12-11T10:22:18.074Z,3493.00
2022-12-11T10:23:18.301Z,3587.00
2022-12-11T10:24:48.860Z,3806.00
2022-12-11T10:25:26.276Z,4107.00
2022-12-11T10:26:28.192Z,4355.00
2022-12-11T10:27:27.359Z,4511.00
2022-12-11T10:28:28.081Z,4631.00
2022-12-11T10:29:27.738Z,4730.00
2022-12-11T10:30:33.052Z,4818.00
2022-12-11T10:31:28.220Z,4795.00
2022-12-11T10:32:28.386Z,4599.00
2022-12-11T10:33:27.607Z,4347.00
2022-12-11T10:34:28.770Z,4121.00
2022-12-11T10:35:27.986Z,3929.00
2022-12-11T10:36:28.179Z,3831.00
2022-12-11T10:37:30.353Z,3856.00
2022-12-11T10:38:28.599Z,3986.00
2022-12-11T10:39:30.260Z,4146.00
2022-12-11T10:40:30.931Z,4338.00
2022-12-11T10:41:29.140Z,4526.00
2022-12-11T10:42:29.339Z,4631.00
2022-12-11T10:43:29.570Z,4643.00
2022-12-11T10:44:30.740Z,4535.00
2022-12-11T10:45:30.891Z,4368.00
2022-12-11T10:46:30.137Z,4187.00
2022-12-11T10:47:30.375Z,4020.00
2022-12-11T10:48:32.563Z,3863.00
2022-12-11T10:49:32.720Z,3738.00
2022-12-11T10:50:32.871Z,3746.00
2022-12-11T10:51:31.090Z,3883.00
2022-12-11T10:52:31.304Z,4083.00
2022-12-11T10:53:31.562Z,4257.00
2022-12-11T10:54:31.783Z,4457.00
2022-12-11T10:55:33.953Z,4678.00
2022-12-11T10:56:34.153Z,4859.00
2022-12-11T10:57:32.355Z,4972.00
2022-12-11T10:58:32.591Z,5084.00
2022-12-11T10:59:32.790Z,5164.00
2022-12-11T11:00:32.994Z,5130.00
2022-12-11T11:01:35.267Z,5006.00
2022-12-11T11:02:33.552Z,4841.00
2022-12-11T11:03:34.801Z,4693.00
2022-12-11T11:04:33.991Z,4519.00
2022-12-11T11:05:35.220Z,4301.00
2022-12-11T11:06:34.414Z,4100.00
2022-12-11T11:07:36.580Z,3983.00
2022-12-11T11:08:36.890Z,3970.00
2022-12-11T11:09:36.063Z,4070.00
2022-12-11T11:10:35.262Z,4201.00
2022-12-11T11:11:35.492Z,4305.00
2022-12-11T11:12:35.696Z,4413.00
2022-12-11T11:13:35.948Z,4493.00
2022-12-11T11:14:36.153Z,4594.00
2022-12-11T11:15:36.352Z,4722.00
2022-12-11T11:16:36.612Z,4810.00
2022-12-11T11:17:40.026Z,4825.00
2022-12-11T11:18:36.891Z,4869.00
2022-12-11T11:19:37.091Z,4922.00
2022-12-11T11:20:37.304Z,4933.00
2022-12-11T11:21:37.511Z,4896.00
2022-12-11T11:22:37.701Z,4759.00
2022-12-11T11:23:44.275Z,4558.00
2022-12-11T11:24:38.246Z,4321.00
2022-12-11T11:25:38.449Z,4106.00
2022-12-11T11:27:11.534Z,3924.00
2022-12-11T11:27:40.712Z,3748.00
2022-12-11T11:28:39.861Z,3609.00
2022-12-11T11:29:39.061Z,3477.00
2022-12-11T11:30:39.262Z,3308.00
2022-12-11T11:31:41.545Z,3104.00
2022-12-11T11:32:41.811Z,2915.00
2022-12-11T11:33:40.031Z,2807.00
2022-12-11T11:34:41.200Z,2844.00
2022-12-11T11:35:45.706Z,2988.00
2022-12-11T11:36:42.581Z,3099.00
2022-12-11T11:37:40.821Z,3114.00
2022-12-11T11:38:43.018Z,3081.00
2022-12-11T11:39:41.224Z,3086.00
2022-12-11T11:40:41.437Z,3093.00
2022-12-11T11:41:41.632Z,3078.00
2022-12-11T11:42:41.870Z,3072.00
2022-12-11T11:43:42.063Z,3078.00
2022-12-11T11:44:43.228Z,3044.00
2022-12-11T11:45:43.398Z,3019.00
2022-12-11T11:46:43.620Z,3023.00
2022-12-11T11:47:42.896Z,3020.00
2022-12-11T11:48:45.062Z,3003.00
2022-12-11T11:49:43.263Z,3012.00
2022-12-11T11:50:45.435Z,3026.00
2022-12-11T11:51:43.633Z,2988.00
2022-12-11T11:52:43.853Z,2936.00
2022-12-11T11:53:45.011Z,2902.00
2022-12-11T11:54:44.214Z,2886.00
2022-12-11T11:55:44.422Z,2876.00
2022-12-11T11:56:45.591Z,2831.00
2022-12-11T11:57:46.322Z,2743.00
2022-12-11T11:58:45.023Z,2614.00
2022-12-11T11:59:45.227Z,2484.00
2022-12-11T12:00:47.422Z,2403.00
2022-12-11T12:01:47.603Z,2382.00
2022-12-11T12:02:47.853Z,2392.00
2022-12-11T12:03:46.077Z,2402.00
2022-12-11T12:04:47.739Z,2378.00
2022-12-11T12:05:46.463Z,2317.00
2022-12-11T12:06:50.723Z,2254.00
2022-12-11T12:07:48.264Z,2224.00
2022-12-11T12:08:49.983Z,2194.00
2022-12-11T12:09:47.782Z,2210.00
2022-12-11T12:10:48.972Z,2287.00
2022-12-11T12:11:48.181Z,2415.00
2022-12-11T12:12:48.493Z,2567.00
2022-12-11T12:13:50.117Z,2721.00
2022-12-11T12:14:52.737Z,2894.00
2022-12-11T12:15:49.222Z,3040.00
2022-12-11T12:16:53.643Z,3068.00
2022-12-11T12:17:55.108Z,3081.00
2022-12-11T12:18:50.143Z,3206.00
2022-12-11T12:19:52.305Z,3365.00
2022-12-11T12:20:51.325Z,3494.00
2022-12-11T12:21:52.473Z,3511.00
2022-12-11T12:22:51.552Z,3425.00
2022-12-11T12:23:50.804Z,3263.00
2022-12-11T12:24:51.023Z,3112.00
2022-12-11T12:25:51.270Z,3036.00
2022-12-11T12:26:51.524Z,2965.00
2022-12-11T12:27:53.844Z,2871.00
2022-12-11T12:28:52.192Z,2770.00
2022-12-11T12:29:53.393Z,2624.00
2022-12-11T12:30:52.602Z,2442.00
2022-12-11T12:31:52.868Z,2332.00
2022-12-11T12:32:55.077Z,2331.00
2022-12-11T12:33:54.166Z,2371.00
2022-12-11T12:34:54.354Z,2374.00
2022-12-11T12:35:53.563Z,2337.00
2022-12-11T12:36:55.744Z,2301.00
2022-12-11T12:37:55.953Z,2250.00
2022-12-11T12:38:54.223Z,2175.00
2022-12-11T12:39:54.442Z,2092.00
2022-12-11T12:40:54.646Z,2029.00
2022-12-11T12:41:55.822Z,1981.00
2022-12-11T12:42:55.036Z,1951.00
2022-12-11T12:43:55.322Z,1958.00
2022-12-11T12:44:55.545Z,1981.00
2022-12-11T12:45:56.775Z,1974.00
2022-12-11T12:46:56.005Z,1912.00
2022-12-11T12:47:57.671Z,1827.00
2022-12-11T12:48:58.355Z,1754.00
2022-12-11T12:49:58.532Z,1710.00
2022-12-11T12:50:58.254Z,1665.00
2022-12-11T12:51:58.434Z,1645.00
2022-12-11T12:52:57.164Z,1663.00
2022-12-11T12:53:58.333Z,1696.00
2022-12-11T12:54:57.545Z,1717.00
2022-12-11T12:55:57.752Z,1716.00
2022-12-11T12:56:57.994Z,1696.00
2022-12-11T12:58:00.194Z,1665.00
2022-12-11T12:58:59.384Z,1627.00
2022-12-11T12:59:58.614Z,1603.00
2022-12-11T13:00:58.935Z,1598.00
2022-12-11T13:01:59.243Z,1600.00
2022-12-11T13:03:01.463Z,1593.00
2022-12-11T13:03:59.675Z,1557.00
2022-12-11T13:05:00.822Z,1506.00
2022-12-11T13:06:00.065Z,1449.00
2022-12-11T13:07:00.289Z,1397.00
2022-12-11T13:08:01.881Z,1358.00
2022-12-11T13:09:00.640Z,1334.00
2022-12-11T13:10:02.861Z,1338.00
2022-12-11T13:11:01.104Z,1361.00
2022-12-11T13:12:01.312Z,1381.00
2022-12-11T13:13:01.532Z,1380.00
2022-12-11T13:14:01.767Z,1365.00
2022-12-11T13:15:01.993Z,1355.00
2022-12-11T13:16:02.297Z,1338.00
2022-12-11T13:17:02.544Z,1314.00
2022-12-11T13:18:02.763Z,1288.00
2022-12-11T13:19:02.989Z,1272.00
2022-12-11T13:20:03.203Z,1283.00
2022-12-11T13:21:03.448Z,1315.00
2022-12-11T13:22:03.663Z,1347.00
2022-12-11T13:23:05.847Z,1378.00
2022-12-11T13:24:04.045Z,1416.00
2022-12-11T13:25:04.284Z,1435.00
2022-12-11T13:26:04.556Z,1431.00
2022-12-11T13:27:04.755Z,1417.00
2022-12-11T13:28:05.904Z,1393.00
2022-12-11T13:29:05.123Z,1376.00
2022-12-11T13:30:05.326Z,1358.00
2022-12-11T13:31:07.055Z,1354.00
2022-12-11T13:32:06.697Z,1343.00
2022-12-11T13:33:05.916Z,1321.00
2022-12-11T13:34:06.123Z,1287.00
2022-12-11T13:35:07.294Z,1263.00
2022-12-11T13:36:09.904Z,1263.00
2022-12-11T13:37:08.728Z,1275.00
2022-12-11T13:38:09.555Z,1279.00
2022-12-11T13:39:07.302Z,1259.00
2022-12-11T13:40:10.015Z,1228.00
2022-12-11T13:41:07.779Z,1208.00
2022-12-11T13:42:13.173Z,1205.00
2022-12-11T13:43:08.007Z,1207.00
2022-12-11T13:44:08.233Z,1203.00
2022-12-11T13:45:10.623Z,1189.00
2022-12-11T13:46:10.615Z,1169.00
2022-12-11T13:47:08.925Z,1146.00
2022-12-11T13:48:16.630Z,1120.00
2022-12-11T13:49:10.542Z,1088.00
2022-12-11T13:50:10.778Z,1046.00
2022-12-11T13:51:09.996Z,1001.00
2022-12-11T13:52:12.174Z,962.00
2022-12-11T13:53:10.406Z,937.00
2022-12-11T13:54:15.126Z,931.00
2022-12-11T13:55:11.133Z,942.00
2022-12-11T13:56:12.995Z,943.00
2022-12-11T13:57:11.194Z,917.00
2022-12-11T13:58:12.346Z,870.00
2022-12-11T13:59:13.545Z,820.00
2022-12-11T14:00:17.138Z,772.00
2022-12-11T14:01:14.112Z,725.00
2022-12-11T14:02:13.385Z,684.00
2022-12-11T14:03:12.607Z,655.00